sensor_id;sensor_type;location;lat;lon;timestamp;P1;durP1;ratioP1;P2;durP2;ratioP2
66927;SDS011;59882;45.624;11.698;2023-07-02T00:01:43;18.55;;;14.13;;
66927;SDS011;59882;45.624;11.698;2023-07-02T00:04:08;17.55;;;13.68;;
66927;SDS011;59882;45.624;11.698;2023-07-02T00:06:35;21.50;;;14.53;;
66927;SDS011;59882;45.624;11.698;2023-07-02T00:09:05;19.15;;;15.20;;
66927;SDS011;59882;45.624;11.698;2023-07-02T00:11:32;19.50;;;14.63;;
66927;SDS011;59882;45.624;11.698;2023-07-02T00:13:57;19.42;;;15.02;;
66927;SDS011;59882;45.624;11.698;2023-07-02T00:16:23;21.07;;;15.97;;
66927;SDS011;59882;45.624;11.698;2023-07-02T00:18:49;20.30;;;17.25;;
66927;SDS011;59882;45.624;11.698;2023-07-02T00:21:18;24.57;;;18.67;;
66927;SDS011;59882;45.624;11.698;2023-07-02T00:23:45;22.88;;;19.88;;
66927;SDS011;59882;45.624;11.698;2023-07-02T00:26:12;25.02;;;21.05;;
66927;SDS011;59882;45.624;11.698;2023-07-02T00:28:37;23.97;;;20.87;;
66927;SDS011;59882;45.624;11.698;2023-07-02T00:31:03;26.38;;;22.33;;
66927;SDS011;59882;45.624;11.698;2023-07-02T00:33:29;27.83;;;23.00;;
66927;SDS011;59882;45.624;11.698;2023-07-02T00:35:56;26.70;;;22.88;;
66927;SDS011;59882;45.624;11.698;2023-07-02T00:38:22;26.67;;;23.23;;
66927;SDS011;59882;45.624;11.698;2023-07-02T00:40:48;30.13;;;27.02;;
66927;SDS011;59882;45.624;11.698;2023-07-02T00:43:13;32.33;;;28.87;;
66927;SDS011;59882;45.624;11.698;2023-07-02T00:45:39;33.20;;;28.43;;
66927;SDS011;59882;45.624;11.698;2023-07-02T00:48:08;33.05;;;29.55;;
66927;SDS011;59882;45.624;11.698;2023-07-02T00:50:33;33.88;;;30.38;;
66927;SDS011;59882;45.624;11.698;2023-07-02T00:52:59;33.90;;;30.40;;
66927;SDS011;59882;45.624;11.698;2023-07-02T00:55:24;34.28;;;30.75;;
66927;SDS011;59882;45.624;11.698;2023-07-02T00:57:50;32.40;;;28.90;;
66927;SDS011;59882;45.624;11.698;2023-07-02T01:00:16;31.55;;;28.02;;
66927;SDS011;59882;45.624;11.698;2023-07-02T01:02:42;29.93;;;26.93;;
66927;SDS011;59882;45.624;11.698;2023-07-02T01:05:09;32.45;;;29.00;;
66927;SDS011;59882;45.624;11.698;2023-07-02T01:07:41;29.50;;;25.92;;
66927;SDS011;59882;45.624;11.698;2023-07-02T01:10:07;30.93;;;27.70;;
66927;SDS011;59882;45.624;11.698;2023-07-02T01:12:33;29.77;;;26.67;;
66927;SDS011;59882;45.624;11.698;2023-07-02T01:15:00;29.38;;;26.20;;
66927;SDS011;59882;45.624;11.698;2023-07-02T01:17:28;29.20;;;26.25;;
66927;SDS011;59882;45.624;11.698;2023-07-02T01:20:02;29.30;;;26.25;;
66927;SDS011;59882;45.624;11.698;2023-07-02T01:22:29;29.30;;;26.23;;
66927;SDS011;59882;45.624;11.698;2023-07-02T01:24:55;28.63;;;25.73;;
66927;SDS011;59882;45.624;11.698;2023-07-02T01:27:21;27.77;;;23.98;;
66927;SDS011;59882;45.624;11.698;2023-07-02T01:29:50;26.80;;;24.02;;
66927;SDS011;59882;45.624;11.698;2023-07-02T01:32:16;24.83;;;22.20;;
66927;SDS011;59882;45.624;11.698;2023-07-02T01:34:42;25.57;;;22.97;;
66927;SDS011;59882;45.624;11.698;2023-07-02T01:37:09;25.83;;;21.73;;
66927;SDS011;59882;45.624;11.698;2023-07-02T01:39:35;24.95;;;22.45;;
66927;SDS011;59882;45.624;11.698;2023-07-02T01:42:07;28.07;;;24.00;;
66927;SDS011;59882;45.624;11.698;2023-07-02T01:44:35;26.00;;;23.30;;
66927;SDS011;59882;45.624;11.698;2023-07-02T01:47:01;28.90;;;25.42;;
66927;SDS011;59882;45.624;11.698;2023-07-02T01:49:27;32.60;;;26.33;;
66927;SDS011;59882;45.624;11.698;2023-07-02T01:51:53;27.50;;;24.60;;
66927;SDS011;59882;45.624;11.698;2023-07-02T01:54:20;27.73;;;24.83;;
66927;SDS011;59882;45.624;11.698;2023-07-02T01:56:46;27.70;;;24.67;;
66927;SDS011;59882;45.624;11.698;2023-07-02T01:59:12;26.08;;;22.58;;
66927;SDS011;59882;45.624;11.698;2023-07-02T02:01:38;23.77;;;20.90;;
66927;SDS011;59882;45.624;11.698;2023-07-02T02:04:05;23.90;;;21.13;;
66927;SDS011;59882;45.624;11.698;2023-07-02T02:06:32;22.23;;;19.90;;
66927;SDS011;59882;45.624;11.698;2023-07-02T02:08:58;22.33;;;20.08;;
66927;SDS011;59882;45.624;11.698;2023-07-02T02:11:24;22.20;;;19.83;;
66927;SDS011;59882;45.624;11.698;2023-07-02T02:13:49;23.45;;;20.95;;
66927;SDS011;59882;45.624;11.698;2023-07-02T02:16:15;23.13;;;20.60;;
66927;SDS011;59882;45.624;11.698;2023-07-02T02:18:41;24.52;;;20.02;;
66927;SDS011;59882;45.624;11.698;2023-07-02T02:21:06;27.73;;;22.17;;
66927;SDS011;59882;45.624;11.698;2023-07-02T02:23:32;26.17;;;22.73;;
66927;SDS011;59882;45.624;11.698;2023-07-02T02:25:57;28.47;;;23.87;;
66927;SDS011;59882;45.624;11.698;2023-07-02T02:28:23;27.17;;;22.90;;
66927;SDS011;59882;45.624;11.698;2023-07-02T02:30:49;25.00;;;22.33;;
66927;SDS011;59882;45.624;11.698;2023-07-02T02:33:14;24.87;;;22.00;;
66927;SDS011;59882;45.624;11.698;2023-07-02T02:35:40;26.20;;;23.48;;
66927;SDS011;59882;45.624;11.698;2023-07-02T02:38:06;25.77;;;22.97;;
66927;SDS011;59882;45.624;11.698;2023-07-02T02:40:31;26.58;;;22.88;;
66927;SDS011;59882;45.624;11.698;2023-07-02T02:42:57;26.90;;;24.10;;
66927;SDS011;59882;45.624;11.698;2023-07-02T02:45:23;32.22;;;24.20;;
66927;SDS011;59882;45.624;11.698;2023-07-02T02:47:48;25.80;;;22.50;;
66927;SDS011;59882;45.624;11.698;2023-07-02T02:50:14;26.17;;;22.87;;
66927;SDS011;59882;45.624;11.698;2023-07-02T02:52:40;31.37;;;25.33;;
66927;SDS011;59882;45.624;11.698;2023-07-02T02:55:06;26.30;;;23.40;;
66927;SDS011;59882;45.624;11.698;2023-07-02T02:57:33;26.33;;;23.47;;
66927;SDS011;59882;45.624;11.698;2023-07-02T02:59:59;28.55;;;24.10;;
66927;SDS011;59882;45.624;11.698;2023-07-02T03:02:24;29.55;;;23.13;;
66927;SDS011;59882;45.624;11.698;2023-07-02T03:04:50;27.02;;;24.13;;
66927;SDS011;59882;45.624;11.698;2023-07-02T03:07:16;28.23;;;24.23;;
66927;SDS011;59882;45.624;11.698;2023-07-02T03:09:42;27.30;;;24.38;;
66927;SDS011;59882;45.624;11.698;2023-07-02T03:12:08;26.23;;;23.43;;
66927;SDS011;59882;45.624;11.698;2023-07-02T03:14:33;27.08;;;23.67;;
66927;SDS011;59882;45.624;11.698;2023-07-02T03:16:59;28.03;;;25.07;;
66927;SDS011;59882;45.624;11.698;2023-07-02T03:19:25;29.48;;;26.27;;
66927;SDS011;59882;45.624;11.698;2023-07-02T03:21:51;29.10;;;25.07;;
66927;SDS011;59882;45.624;11.698;2023-07-02T03:24:17;27.40;;;24.08;;
66927;SDS011;59882;45.624;11.698;2023-07-02T03:26:43;31.85;;;27.00;;
66927;SDS011;59882;45.624;11.698;2023-07-02T03:29:09;29.10;;;25.77;;
66927;SDS011;59882;45.624;11.698;2023-07-02T03:31:35;30.70;;;25.60;;
66927;SDS011;59882;45.624;11.698;2023-07-02T03:34:06;27.27;;;22.63;;
66927;SDS011;59882;45.624;11.698;2023-07-02T03:36:34;27.38;;;24.48;;
66927;SDS011;59882;45.624;11.698;2023-07-02T03:38:59;26.57;;;23.60;;
66927;SDS011;59882;45.624;11.698;2023-07-02T03:41:25;28.17;;;25.05;;
66927;SDS011;59882;45.624;11.698;2023-07-02T03:43:51;26.80;;;23.93;;
66927;SDS011;59882;45.624;11.698;2023-07-02T03:46:16;27.57;;;24.60;;
66927;SDS011;59882;45.624;11.698;2023-07-02T03:48:42;26.40;;;23.43;;
66927;SDS011;59882;45.624;11.698;2023-07-02T03:51:07;27.80;;;24.70;;
66927;SDS011;59882;45.624;11.698;2023-07-02T03:53:33;28.60;;;23.25;;
66927;SDS011;59882;45.624;11.698;2023-07-02T03:55:59;29.50;;;25.63;;
66927;SDS011;59882;45.624;11.698;2023-07-02T03:58:25;29.23;;;24.83;;
66927;SDS011;59882;45.624;11.698;2023-07-02T04:00:50;27.90;;;24.77;;
66927;SDS011;59882;45.624;11.698;2023-07-02T04:03:16;26.95;;;24.00;;
66927;SDS011;59882;45.624;11.698;2023-07-02T04:05:42;28.58;;;23.60;;
66927;SDS011;59882;45.624;11.698;2023-07-02T04:08:08;27.40;;;24.50;;
66927;SDS011;59882;45.624;11.698;2023-07-02T04:10:34;27.95;;;24.95;;
66927;SDS011;59882;45.624;11.698;2023-07-02T04:12:59;30.87;;;25.97;;
66927;SDS011;59882;45.624;11.698;2023-07-02T04:15:25;25.05;;;21.33;;
66927;SDS011;59882;45.624;11.698;2023-07-02T04:17:51;21.67;;;18.73;;
66927;SDS011;59882;45.624;11.698;2023-07-02T04:20:18;23.38;;;17.25;;
66927;SDS011;59882;45.624;11.698;2023-07-02T04:22:47;18.83;;;15.25;;
66927;SDS011;59882;45.624;11.698;2023-07-02T04:25:13;16.48;;;13.13;;
66927;SDS011;59882;45.624;11.698;2023-07-02T04:27:40;15.60;;;12.90;;
66927;SDS011;59882;45.624;11.698;2023-07-02T04:30:06;16.17;;;10.80;;
66927;SDS011;59882;45.624;11.698;2023-07-02T04:32:33;13.20;;;9.55;;
66927;SDS011;59882;45.624;11.698;2023-07-02T04:34:58;13.45;;;9.55;;
66927;SDS011;59882;45.624;11.698;2023-07-02T04:37:24;13.70;;;9.77;;
66927;SDS011;59882;45.624;11.698;2023-07-02T04:39:50;14.27;;;9.70;;
66927;SDS011;59882;45.624;11.698;2023-07-02T04:42:15;14.23;;;9.73;;
66927;SDS011;59882;45.624;11.698;2023-07-02T04:44:41;14.45;;;9.45;;
66927;SDS011;59882;45.624;11.698;2023-07-02T04:47:08;12.80;;;9.67;;
66927;SDS011;59882;45.624;11.698;2023-07-02T04:49:34;12.80;;;9.80;;
66927;SDS011;59882;45.624;11.698;2023-07-02T04:51:59;12.53;;;9.67;;
66927;SDS011;59882;45.624;11.698;2023-07-02T04:54:25;12.07;;;9.70;;
66927;SDS011;59882;45.624;11.698;2023-07-02T04:56:51;14.60;;;10.93;;
66927;SDS011;59882;45.624;11.698;2023-07-02T04:59:16;14.07;;;10.07;;
66927;SDS011;59882;45.624;11.698;2023-07-02T05:01:42;14.00;;;10.60;;
66927;SDS011;59882;45.624;11.698;2023-07-02T05:04:09;12.82;;;10.50;;
66927;SDS011;59882;45.624;11.698;2023-07-02T05:06:38;13.00;;;10.27;;
66927;SDS011;59882;45.624;11.698;2023-07-02T05:09:04;14.20;;;9.87;;
66927;SDS011;59882;45.624;11.698;2023-07-02T05:11:30;12.73;;;9.88;;
66927;SDS011;59882;45.624;11.698;2023-07-02T05:13:56;14.07;;;9.57;;
66927;SDS011;59882;45.624;11.698;2023-07-02T05:16:21;15.68;;;9.90;;
66927;SDS011;59882;45.624;11.698;2023-07-02T05:18:47;13.00;;;9.33;;
66927;SDS011;59882;45.624;11.698;2023-07-02T05:21:16;13.50;;;9.18;;
66927;SDS011;59882;45.624;11.698;2023-07-02T05:23:43;12.13;;;10.50;;
66927;SDS011;59882;45.624;11.698;2023-07-02T05:26:08;14.00;;;9.38;;
66927;SDS011;59882;45.624;11.698;2023-07-02T05:28:34;12.53;;;9.13;;
66927;SDS011;59882;45.624;11.698;2023-07-02T05:30:59;16.08;;;9.00;;
66927;SDS011;59882;45.624;11.698;2023-07-02T05:33:25;13.50;;;8.80;;
66927;SDS011;59882;45.624;11.698;2023-07-02T05:35:51;10.93;;;9.10;;
66927;SDS011;59882;45.624;11.698;2023-07-02T05:38:17;13.70;;;9.57;;
66927;SDS011;59882;45.624;11.698;2023-07-02T05:40:43;11.63;;;9.85;;
66927;SDS011;59882;45.624;11.698;2023-07-02T05:43:09;12.18;;;9.73;;
66927;SDS011;59882;45.624;11.698;2023-07-02T05:45:35;13.90;;;8.83;;
66927;SDS011;59882;45.624;11.698;2023-07-02T05:48:00;12.30;;;9.73;;
66927;SDS011;59882;45.624;11.698;2023-07-02T05:50:26;13.50;;;9.50;;
66927;SDS011;59882;45.624;11.698;2023-07-02T05:52:52;14.50;;;9.87;;
66927;SDS011;59882;45.624;11.698;2023-07-02T05:55:17;15.52;;;10.10;;
66927;SDS011;59882;45.624;11.698;2023-07-02T05:57:43;15.27;;;10.33;;
66927;SDS011;59882;45.624;11.698;2023-07-02T06:00:09;13.32;;;9.25;;
66927;SDS011;59882;45.624;11.698;2023-07-02T06:02:35;13.35;;;9.98;;
66927;SDS011;59882;45.624;11.698;2023-07-02T06:05:01;12.50;;;9.93;;
66927;SDS011;59882;45.624;11.698;2023-07-02T06:07:27;12.35;;;9.68;;
66927;SDS011;59882;45.624;11.698;2023-07-02T06:09:53;12.27;;;10.38;;
66927;SDS011;59882;45.624;11.698;2023-07-02T06:12:19;13.83;;;9.90;;
66927;SDS011;59882;45.624;11.698;2023-07-02T06:14:45;12.68;;;9.90;;
66927;SDS011;59882;45.624;11.698;2023-07-02T06:17:11;12.53;;;9.50;;
66927;SDS011;59882;45.624;11.698;2023-07-02T06:19:37;15.85;;;10.90;;
66927;SDS011;59882;45.624;11.698;2023-07-02T06:22:03;15.68;;;10.00;;
66927;SDS011;59882;45.624;11.698;2023-07-02T06:24:29;15.67;;;10.63;;
66927;SDS011;59882;45.624;11.698;2023-07-02T06:26:54;14.00;;;10.52;;
66927;SDS011;59882;45.624;11.698;2023-07-02T06:29:21;13.47;;;10.97;;
66927;SDS011;59882;45.624;11.698;2023-07-02T06:31:48;13.23;;;10.65;;
66927;SDS011;59882;45.624;11.698;2023-07-02T06:34:14;15.73;;;10.70;;
66927;SDS011;59882;45.624;11.698;2023-07-02T06:36:40;15.13;;;11.13;;
66927;SDS011;59882;45.624;11.698;2023-07-02T06:39:06;14.70;;;10.80;;
66927;SDS011;59882;45.624;11.698;2023-07-02T06:41:33;16.70;;;11.55;;
66927;SDS011;59882;45.624;11.698;2023-07-02T06:43:58;14.60;;;10.77;;
66927;SDS011;59882;45.624;11.698;2023-07-02T06:46:24;13.52;;;11.77;;
66927;SDS011;59882;45.624;11.698;2023-07-02T06:48:49;14.17;;;11.87;;
66927;SDS011;59882;45.624;11.698;2023-07-02T06:51:15;14.60;;;11.75;;
66927;SDS011;59882;45.624;11.698;2023-07-02T06:53:41;14.63;;;10.70;;
66927;SDS011;59882;45.624;11.698;2023-07-02T06:56:07;15.57;;;11.85;;
66927;SDS011;59882;45.624;11.698;2023-07-02T06:58:34;18.58;;;13.88;;
66927;SDS011;59882;45.624;11.698;2023-07-02T07:01:00;16.03;;;12.37;;
66927;SDS011;59882;45.624;11.698;2023-07-02T07:03:26;17.00;;;12.40;;
66927;SDS011;59882;45.624;11.698;2023-07-02T07:05:52;17.92;;;13.35;;
66927;SDS011;59882;45.624;11.698;2023-07-02T07:08:18;19.17;;;13.30;;
66927;SDS011;59882;45.624;11.698;2023-07-02T07:10:44;18.60;;;13.73;;
66927;SDS011;59882;45.624;11.698;2023-07-02T07:13:11;16.30;;;13.23;;
66927;SDS011;59882;45.624;11.698;2023-07-02T07:15:37;15.27;;;12.77;;
66927;SDS011;59882;45.624;11.698;2023-07-02T07:18:03;15.15;;;12.52;;
66927;SDS011;59882;45.624;11.698;2023-07-02T07:20:29;17.13;;;13.07;;
66927;SDS011;59882;45.624;11.698;2023-07-02T07:22:55;19.00;;;12.90;;
66927;SDS011;59882;45.624;11.698;2023-07-02T07:25:21;17.37;;;12.70;;
66927;SDS011;59882;45.624;11.698;2023-07-02T07:27:47;14.65;;;12.88;;
66927;SDS011;59882;45.624;11.698;2023-07-02T07:30:12;14.87;;;12.80;;
66927;SDS011;59882;45.624;11.698;2023-07-02T07:32:39;17.85;;;13.73;;
66927;SDS011;59882;45.624;11.698;2023-07-02T07:35:06;16.67;;;12.35;;
66927;SDS011;59882;45.624;11.698;2023-07-02T07:37:32;16.52;;;12.80;;
66927;SDS011;59882;45.624;11.698;2023-07-02T07:39:57;14.00;;;11.73;;
66927;SDS011;59882;45.624;11.698;2023-07-02T07:42:23;15.60;;;12.83;;
66927;SDS011;59882;45.624;11.698;2023-07-02T07:44:49;13.38;;;11.93;;
66927;SDS011;59882;45.624;11.698;2023-07-02T07:47:15;15.13;;;10.93;;
66927;SDS011;59882;45.624;11.698;2023-07-02T07:49:40;14.48;;;12.13;;
66927;SDS011;59882;45.624;11.698;2023-07-02T07:52:06;14.27;;;11.90;;
66927;SDS011;59882;45.624;11.698;2023-07-02T07:54:32;15.55;;;11.48;;
66927;SDS011;59882;45.624;11.698;2023-07-02T07:57:00;15.88;;;12.25;;
66927;SDS011;59882;45.624;11.698;2023-07-02T07:59:26;17.00;;;11.13;;
66927;SDS011;59882;45.624;11.698;2023-07-02T08:01:52;16.67;;;11.73;;
66927;SDS011;59882;45.624;11.698;2023-07-02T08:04:18;14.68;;;12.05;;
66927;SDS011;59882;45.624;11.698;2023-07-02T08:06:43;14.63;;;10.37;;
66927;SDS011;59882;45.624;11.698;2023-07-02T08:09:09;13.87;;;10.60;;
66927;SDS011;59882;45.624;11.698;2023-07-02T08:11:35;15.85;;;11.35;;
66927;SDS011;59882;45.624;11.698;2023-07-02T08:14:01;14.60;;;11.20;;
66927;SDS011;59882;45.624;11.698;2023-07-02T08:16:26;14.30;;;10.73;;
66927;SDS011;59882;45.624;11.698;2023-07-02T08:18:52;15.90;;;10.50;;
66927;SDS011;59882;45.624;11.698;2023-07-02T08:21:17;14.85;;;11.70;;
66927;SDS011;59882;45.624;11.698;2023-07-02T08:23:43;16.27;;;11.30;;
66927;SDS011;59882;45.624;11.698;2023-07-02T08:26:09;14.65;;;10.95;;
66927;SDS011;59882;45.624;11.698;2023-07-02T08:28:36;14.55;;;10.18;;
66927;SDS011;59882;45.624;11.698;2023-07-02T08:31:03;15.43;;;11.40;;
66927;SDS011;59882;45.624;11.698;2023-07-02T08:33:29;15.50;;;11.20;;
66927;SDS011;59882;45.624;11.698;2023-07-02T08:35:54;17.77;;;11.80;;
66927;SDS011;59882;45.624;11.698;2023-07-02T08:38:20;14.73;;;12.60;;
66927;SDS011;59882;45.624;11.698;2023-07-02T08:40:46;13.93;;;11.27;;
66927;SDS011;59882;45.624;11.698;2023-07-02T08:43:16;16.27;;;12.05;;
66927;SDS011;59882;45.624;11.698;2023-07-02T08:45:42;18.20;;;12.03;;
66927;SDS011;59882;45.624;11.698;2023-07-02T08:48:08;13.85;;;10.65;;
66927;SDS011;59882;45.624;11.698;2023-07-02T08:50:38;13.88;;;9.90;;
66927;SDS011;59882;45.624;11.698;2023-07-02T08:53:06;13.88;;;11.05;;
66927;SDS011;59882;45.624;11.698;2023-07-02T08:55:32;13.57;;;10.80;;
66927;SDS011;59882;45.624;11.698;2023-07-02T08:57:57;13.93;;;10.70;;
66927;SDS011;59882;45.624;11.698;2023-07-02T09:00:24;15.53;;;12.70;;
66927;SDS011;59882;45.624;11.698;2023-07-02T09:02:50;16.52;;;12.63;;
66927;SDS011;59882;45.624;11.698;2023-07-02T09:05:16;15.02;;;10.70;;
66927;SDS011;59882;45.624;11.698;2023-07-02T09:07:46;14.23;;;10.07;;
66927;SDS011;59882;45.624;11.698;2023-07-02T09:10:24;12.85;;;9.23;;
66927;SDS011;59882;45.624;11.698;2023-07-02T09:13:06;13.05;;;9.15;;
66927;SDS011;59882;45.624;11.698;2023-07-02T09:15:38;12.30;;;8.90;;
66927;SDS011;59882;45.624;11.698;2023-07-02T09:18:15;13.25;;;7.55;;
66927;SDS011;59882;45.624;11.698;2023-07-02T09:20:45;10.53;;;7.37;;
66927;SDS011;59882;45.624;11.698;2023-07-02T09:23:12;14.45;;;10.60;;
66927;SDS011;59882;45.624;11.698;2023-07-02T09:25:38;13.27;;;9.82;;
66927;SDS011;59882;45.624;11.698;2023-07-02T09:28:21;11.93;;;8.52;;
66927;SDS011;59882;45.624;11.698;2023-07-02T09:33:24;11.48;;;8.55;;
66927;SDS011;59882;45.624;11.698;2023-07-02T09:35:53;11.63;;;8.43;;
66927;SDS011;59882;45.624;11.698;2023-07-02T09:38:20;12.35;;;8.70;;
66927;SDS011;59882;45.624;11.698;2023-07-02T09:40:50;11.75;;;7.90;;
66927;SDS011;59882;45.624;11.698;2023-07-02T09:43:16;12.43;;;8.17;;
66927;SDS011;59882;45.624;11.698;2023-07-02T09:45:44;11.05;;;7.13;;
66927;SDS011;59882;45.624;11.698;2023-07-02T09:48:15;12.52;;;9.57;;
66927;SDS011;59882;45.624;11.698;2023-07-02T09:50:42;13.07;;;9.48;;
66927;SDS011;59882;45.624;11.698;2023-07-02T09:53:09;13.32;;;8.00;;
66927;SDS011;59882;45.624;11.698;2023-07-02T09:55:35;10.63;;;7.60;;
66927;SDS011;59882;45.624;11.698;2023-07-02T09:58:06;12.57;;;8.45;;
66927;SDS011;59882;45.624;11.698;2023-07-02T10:00:32;11.55;;;9.07;;
66927;SDS011;59882;45.624;11.698;2023-07-02T10:02:58;13.60;;;9.90;;
66927;SDS011;59882;45.624;11.698;2023-07-02T10:05:28;13.82;;;9.43;;
66927;SDS011;59882;45.624;11.698;2023-07-02T10:07:58;14.05;;;10.48;;
66927;SDS011;59882;45.624;11.698;2023-07-02T10:10:36;12.13;;;9.63;;
66927;SDS011;59882;45.624;11.698;2023-07-02T10:13:02;12.93;;;10.47;;
66927;SDS011;59882;45.624;11.698;2023-07-02T10:15:28;13.55;;;9.43;;
66927;SDS011;59882;45.624;11.698;2023-07-02T10:17:58;15.45;;;10.90;;
66927;SDS011;59882;45.624;11.698;2023-07-02T10:20:40;14.50;;;10.47;;
66927;SDS011;59882;45.624;11.698;2023-07-02T10:23:07;14.63;;;9.52;;
66927;SDS011;59882;45.624;11.698;2023-07-02T10:25:35;13.48;;;10.48;;
66927;SDS011;59882;45.624;11.698;2023-07-02T10:28:18;16.55;;;10.63;;
66927;SDS011;59882;45.624;11.698;2023-07-02T10:30:47;14.25;;;12.25;;
66927;SDS011;59882;45.624;11.698;2023-07-02T10:33:13;15.20;;;13.03;;
66927;SDS011;59882;45.624;11.698;2023-07-02T10:35:40;15.48;;;12.35;;
66927;SDS011;59882;45.624;11.698;2023-07-02T10:38:17;16.60;;;11.30;;
66927;SDS011;59882;45.624;11.698;2023-07-02T10:40:46;14.25;;;11.02;;
66927;SDS011;59882;45.624;11.698;2023-07-02T10:43:12;13.48;;;11.18;;
66927;SDS011;59882;45.624;11.698;2023-07-02T10:45:38;13.90;;;10.17;;
66927;SDS011;59882;45.624;11.698;2023-07-02T10:48:04;16.70;;;13.52;;
66927;SDS011;59882;45.624;11.698;2023-07-02T10:50:34;14.47;;;11.07;;
66927;SDS011;59882;45.624;11.698;2023-07-02T10:53:00;16.23;;;12.75;;
66927;SDS011;59882;45.624;11.698;2023-07-02T10:55:26;15.13;;;12.05;;
66927;SDS011;59882;45.624;11.698;2023-07-02T10:58:05;12.82;;;10.68;;
66927;SDS011;59882;45.624;11.698;2023-07-02T11:00:33;14.37;;;11.37;;
66927;SDS011;59882;45.624;11.698;2023-07-02T11:03:15;13.57;;;12.00;;
66927;SDS011;59882;45.624;11.698;2023-07-02T11:05:43;15.93;;;12.60;;
66927;SDS011;59882;45.624;11.698;2023-07-02T11:08:09;15.57;;;12.50;;
66927;SDS011;59882;45.624;11.698;2023-07-02T11:10:35;14.73;;;10.27;;
66927;SDS011;59882;45.624;11.698;2023-07-02T11:13:17;12.00;;;10.02;;
66927;SDS011;59882;45.624;11.698;2023-07-02T11:15:44;14.35;;;11.90;;
66927;SDS011;59882;45.624;11.698;2023-07-02T11:18:14;13.70;;;12.13;;
66927;SDS011;59882;45.624;11.698;2023-07-02T11:20:41;16.98;;;15.07;;
66927;SDS011;59882;45.624;11.698;2023-07-02T11:23:18;15.57;;;12.32;;
66927;SDS011;59882;45.624;11.698;2023-07-02T11:25:57;14.80;;;12.38;;
66927;SDS011;59882;45.624;11.698;2023-07-02T11:28:23;16.67;;;14.50;;
66927;SDS011;59882;45.624;11.698;2023-07-02T11:30:49;13.67;;;11.93;;
66927;SDS011;59882;45.624;11.698;2023-07-02T11:33:15;19.02;;;14.27;;
66927;SDS011;59882;45.624;11.698;2023-07-02T11:35:40;14.90;;;11.97;;
66927;SDS011;59882;45.624;11.698;2023-07-02T11:38:08;11.90;;;10.57;;
66927;SDS011;59882;45.624;11.698;2023-07-02T11:40:35;14.43;;;11.32;;
66927;SDS011;59882;45.624;11.698;2023-07-02T11:43:01;13.85;;;11.23;;
66927;SDS011;59882;45.624;11.698;2023-07-02T11:45:27;14.77;;;11.07;;
66927;SDS011;59882;45.624;11.698;2023-07-02T11:47:53;14.55;;;11.85;;
66927;SDS011;59882;45.624;11.698;2023-07-02T11:50:19;16.85;;;15.05;;
66927;SDS011;59882;45.624;11.698;2023-07-02T11:52:45;14.70;;;11.70;;
66927;SDS011;59882;45.624;11.698;2023-07-02T11:55:11;13.48;;;11.10;;
66927;SDS011;59882;45.624;11.698;2023-07-02T11:57:36;12.63;;;10.10;;
66927;SDS011;59882;45.624;11.698;2023-07-02T12:00:02;14.68;;;11.70;;
66927;SDS011;59882;45.624;11.698;2023-07-02T12:02:28;14.35;;;11.57;;
66927;SDS011;59882;45.624;11.698;2023-07-02T12:04:54;13.80;;;10.87;;
66927;SDS011;59882;45.624;11.698;2023-07-02T12:07:19;12.83;;;10.70;;
66927;SDS011;59882;45.624;11.698;2023-07-02T12:09:45;12.77;;;11.15;;
66927;SDS011;59882;45.624;11.698;2023-07-02T12:12:10;14.83;;;12.07;;
66927;SDS011;59882;45.624;11.698;2023-07-02T12:14:36;13.25;;;10.43;;
66927;SDS011;59882;45.624;11.698;2023-07-02T12:17:02;11.43;;;9.40;;
66927;SDS011;59882;45.624;11.698;2023-07-02T12:19:29;14.10;;;10.73;;
66927;SDS011;59882;45.624;11.698;2023-07-02T12:21:55;13.07;;;11.20;;
66927;SDS011;59882;45.624;11.698;2023-07-02T12:24:20;12.80;;;10.82;;
66927;SDS011;59882;45.624;11.698;2023-07-02T12:26:46;14.87;;;13.27;;
66927;SDS011;59882;45.624;11.698;2023-07-02T12:29:11;13.65;;;11.27;;
66927;SDS011;59882;45.624;11.698;2023-07-02T12:31:37;13.07;;;11.43;;
66927;SDS011;59882;45.624;11.698;2023-07-02T12:34:03;11.90;;;9.17;;
66927;SDS011;59882;45.624;11.698;2023-07-02T12:36:28;14.02;;;10.13;;
66927;SDS011;59882;45.624;11.698;2023-07-02T12:38:54;10.80;;;8.43;;
66927;SDS011;59882;45.624;11.698;2023-07-02T12:41:19;9.82;;;8.18;;
66927;SDS011;59882;45.624;11.698;2023-07-02T12:43:45;12.17;;;9.50;;
66927;SDS011;59882;45.624;11.698;2023-07-02T12:46:11;11.17;;;8.93;;
66927;SDS011;59882;45.624;11.698;2023-07-02T12:48:36;11.30;;;8.20;;
66927;SDS011;59882;45.624;11.698;2023-07-02T12:51:02;11.47;;;8.60;;
66927;SDS011;59882;45.624;11.698;2023-07-02T12:53:28;11.38;;;9.85;;
66927;SDS011;59882;45.624;11.698;2023-07-02T12:55:53;9.20;;;8.23;;
66927;SDS011;59882;45.624;11.698;2023-07-02T12:58:19;13.32;;;8.77;;
66927;SDS011;59882;45.624;11.698;2023-07-02T13:00:46;10.30;;;7.97;;
66927;SDS011;59882;45.624;11.698;2023-07-02T13:03:12;9.67;;;7.50;;
66927;SDS011;59882;45.624;11.698;2023-07-02T13:05:38;10.45;;;8.07;;
66927;SDS011;59882;45.624;11.698;2023-07-02T13:08:05;11.40;;;8.82;;
66927;SDS011;59882;45.624;11.698;2023-07-02T13:10:31;13.32;;;8.77;;
66927;SDS011;59882;45.624;11.698;2023-07-02T13:12:58;12.65;;;9.27;;
66927;SDS011;59882;45.624;11.698;2023-07-02T13:15:24;11.90;;;8.63;;
66927;SDS011;59882;45.624;11.698;2023-07-02T13:17:50;11.20;;;9.75;;
66927;SDS011;59882;45.624;11.698;2023-07-02T13:20:16;9.80;;;8.45;;
66927;SDS011;59882;45.624;11.698;2023-07-02T13:22:41;12.53;;;10.40;;
66927;SDS011;59882;45.624;11.698;2023-07-02T13:25:07;10.00;;;8.23;;
66927;SDS011;59882;45.624;11.698;2023-07-02T13:27:33;9.93;;;8.15;;
66927;SDS011;59882;45.624;11.698;2023-07-02T13:29:59;11.27;;;8.33;;
66927;SDS011;59882;45.624;11.698;2023-07-02T13:32:25;12.40;;;9.10;;
66927;SDS011;59882;45.624;11.698;2023-07-02T13:34:51;13.18;;;8.68;;
66927;SDS011;59882;45.624;11.698;2023-07-02T13:37:16;10.77;;;8.95;;
66927;SDS011;59882;45.624;11.698;2023-07-02T13:39:46;12.47;;;8.47;;
66927;SDS011;59882;45.624;11.698;2023-07-02T13:42:13;11.25;;;8.63;;
66927;SDS011;59882;45.624;11.698;2023-07-02T13:44:39;9.05;;;7.38;;
66927;SDS011;59882;45.624;11.698;2023-07-02T13:47:05;10.70;;;8.02;;
66927;SDS011;59882;45.624;11.698;2023-07-02T13:49:31;11.33;;;8.23;;
66927;SDS011;59882;45.624;11.698;2023-07-02T13:51:58;10.50;;;7.93;;
66927;SDS011;59882;45.624;11.698;2023-07-02T13:54:23;9.88;;;7.93;;
66927;SDS011;59882;45.624;11.698;2023-07-02T13:56:49;8.80;;;7.13;;
66927;SDS011;59882;45.624;11.698;2023-07-02T13:59:16;12.40;;;9.18;;
66927;SDS011;59882;45.624;11.698;2023-07-02T14:01:43;10.15;;;7.93;;
66927;SDS011;59882;45.624;11.698;2023-07-02T14:04:09;14.10;;;9.48;;
66927;SDS011;59882;45.624;11.698;2023-07-02T14:06:35;12.65;;;8.95;;
66927;SDS011;59882;45.624;11.698;2023-07-02T14:09:01;11.00;;;8.43;;
66927;SDS011;59882;45.624;11.698;2023-07-02T14:11:27;9.50;;;7.80;;
66927;SDS011;59882;45.624;11.698;2023-07-02T14:13:53;10.10;;;8.20;;